sensor_id;sensor_type;location;lat;lon;timestamp;P1;durP1;ratioP1;P2;durP2;ratioP2
29466;SDS011;60968;37.490;-122.288;2022-09-09T00:02:42;6.97;;;4.15;;
29466;SDS011;60968;37.490;-122.288;2022-09-09T00:09:19;8.13;;;4.28;;
29466;SDS011;60968;37.490;-122.288;2022-09-09T00:12:43;7.47;;;4.28;;
29466;SDS011;60968;37.490;-122.288;2022-09-09T00:16:04;6.13;;;3.85;;
29466;SDS011;60968;37.490;-122.288;2022-09-09T00:22:36;6.97;;;3.25;;
29466;SDS011;60968;37.490;-122.288;2022-09-09T00:25:57;4.80;;;2.53;;
29466;SDS011;60968;37.490;-122.288;2022-09-09T00:32:18;4.32;;;2.55;;
29466;SDS011;60968;37.490;-122.288;2022-09-09T00:42:09;8.10;;;2.90;;
29466;SDS011;60968;37.490;-122.288;2022-09-09T00:45:43;5.32;;;3.20;;
29466;SDS011;60968;37.490;-122.288;2022-09-09T00:55:21;7.45;;;3.20;;
29466;SDS011;60968;37.490;-122.288;2022-09-09T00:58:26;9.07;;;3.40;;
29466;SDS011;60968;37.490;-122.288;2022-09-09T01:01:27;6.65;;;3.17;;
29466;SDS011;60968;37.490;-122.288;2022-09-09T01:04:29;7.00;;;3.40;;
29466;SDS011;60968;37.490;-122.288;2022-09-09T01:07:34;6.55;;;3.30;;
29466;SDS011;60968;37.490;-122.288;2022-09-09T01:17:31;8.52;;;3.50;;
29466;SDS011;60968;37.490;-122.288;2022-09-09T01:20:47;13.07;;;4.10;;
29466;SDS011;60968;37.490;-122.288;2022-09-09T01:27:03;8.38;;;3.70;;
29466;SDS011;60968;37.490;-122.288;2022-09-09T01:30:12;9.20;;;3.80;;
29466;SDS011;60968;37.490;-122.288;2022-09-09T01:33:19;7.80;;;3.45;;
29466;SDS011;60968;37.490;-122.288;2022-09-09T01:36:24;12.02;;;3.78;;
29466;SDS011;60968;37.490;-122.288;2022-09-09T01:39:45;11.02;;;3.60;;
29466;SDS011;60968;37.490;-122.288;2022-09-09T01:42:48;8.88;;;3.20;;
29466;SDS011;60968;37.490;-122.288;2022-09-09T01:45:49;9.45;;;3.85;;
29466;SDS011;60968;37.490;-122.288;2022-09-09T01:48:54;18.48;;;7.03;;
29466;SDS011;60968;37.490;-122.288;2022-09-09T02:08:19;9.27;;;3.88;;
29466;SDS011;60968;37.490;-122.288;2022-09-09T02:11:27;11.88;;;4.07;;
29466;SDS011;60968;37.490;-122.288;2022-09-09T02:14:32;9.50;;;3.58;;
29466;SDS011;60968;37.490;-122.288;2022-09-09T02:17:40;11.27;;;4.25;;
29466;SDS011;60968;37.490;-122.288;2022-09-09T02:20:43;9.25;;;4.00;;
29466;SDS011;60968;37.490;-122.288;2022-09-09T02:23:47;11.52;;;4.15;;
29466;SDS011;60968;37.490;-122.288;2022-09-09T02:26:51;8.88;;;4.40;;
29466;SDS011;60968;37.490;-122.288;2022-09-09T02:29:55;7.53;;;3.47;;
29466;SDS011;60968;37.490;-122.288;2022-09-09T02:33:00;12.77;;;3.85;;
29466;SDS011;60968;37.490;-122.288;2022-09-09T02:36:05;9.13;;;3.78;;
29466;SDS011;60968;37.490;-122.288;2022-09-09T02:39:11;10.32;;;4.00;;
29466;SDS011;60968;37.490;-122.288;2022-09-09T02:42:14;11.07;;;3.47;;
29466;SDS011;60968;37.490;-122.288;2022-09-09T02:45:16;7.40;;;3.80;;
29466;SDS011;60968;37.490;-122.288;2022-09-09T02:48:33;11.77;;;3.50;;
29466;SDS011;60968;37.490;-122.288;2022-09-09T02:55:04;10.13;;;3.83;;
29466;SDS011;60968;37.490;-122.288;2022-09-09T02:58:12;8.00;;;3.78;;
29466;SDS011;60968;37.490;-122.288;2022-09-09T03:01:23;6.57;;;3.45;;
29466;SDS011;60968;37.490;-122.288;2022-09-09T03:04:24;10.73;;;3.90;;
29466;SDS011;60968;37.490;-122.288;2022-09-09T03:07:25;8.45;;;3.85;;
29466;SDS011;60968;37.490;-122.288;2022-09-09T03:10:26;11.73;;;3.95;;
29466;SDS011;60968;37.490;-122.288;2022-09-09T03:13:28;9.10;;;4.05;;
29466;SDS011;60968;37.490;-122.288;2022-09-09T03:16:29;9.38;;;4.30;;
29466;SDS011;60968;37.490;-122.288;2022-09-09T03:19:30;8.25;;;4.20;;
29466;SDS011;60968;37.490;-122.288;2022-09-09T03:22:31;10.70;;;5.05;;
29466;SDS011;60968;37.490;-122.288;2022-09-09T03:25:32;7.25;;;4.10;;
29466;SDS011;60968;37.490;-122.288;2022-09-09T03:28:33;8.70;;;4.25;;
29466;SDS011;60968;37.490;-122.288;2022-09-09T03:31:34;8.48;;;3.63;;
29466;SDS011;60968;37.490;-122.288;2022-09-09T03:34:36;7.90;;;4.28;;
29466;SDS011;60968;37.490;-122.288;2022-09-09T03:37:42;8.15;;;3.95;;
29466;SDS011;60968;37.490;-122.288;2022-09-09T03:40:53;7.72;;;3.75;;
29466;SDS011;60968;37.490;-122.288;2022-09-09T03:43:56;7.30;;;3.78;;
29466;SDS011;60968;37.490;-122.288;2022-09-09T03:46:56;8.50;;;3.85;;
29466;SDS011;60968;37.490;-122.288;2022-09-09T03:49:58;9.07;;;3.47;;
29466;SDS011;60968;37.490;-122.288;2022-09-09T03:52:59;7.35;;;3.88;;
29466;SDS011;60968;37.490;-122.288;2022-09-09T03:56:03;5.25;;;3.33;;
29466;SDS011;60968;37.490;-122.288;2022-09-09T03:59:06;12.43;;;3.55;;
29466;SDS011;60968;37.490;-122.288;2022-09-09T04:02:06;7.80;;;3.60;;
29466;SDS011;60968;37.490;-122.288;2022-09-09T04:05:08;4.53;;;2.85;;
29466;SDS011;60968;37.490;-122.288;2022-09-09T04:08:09;7.20;;;3.40;;
29466;SDS011;60968;37.490;-122.288;2022-09-09T04:11:10;7.78;;;3.30;;
29466;SDS011;60968;37.490;-122.288;2022-09-09T04:14:14;8.85;;;3.33;;
29466;SDS011;60968;37.490;-122.288;2022-09-09T04:17:16;6.70;;;3.30;;
29466;SDS011;60968;37.490;-122.288;2022-09-09T04:20:17;9.93;;;3.20;;
29466;SDS011;60968;37.490;-122.288;2022-09-09T04:23:18;6.40;;;3.00;;
29466;SDS011;60968;37.490;-122.288;2022-09-09T04:26:21;9.98;;;3.63;;
29466;SDS011;60968;37.490;-122.288;2022-09-09T04:29:21;6.43;;;3.30;;
29466;SDS011;60968;37.490;-122.288;2022-09-09T04:32:24;5.30;;;3.28;;
29466;SDS011;60968;37.490;-122.288;2022-09-09T04:35:25;5.93;;;2.72;;
29466;SDS011;60968;37.490;-122.288;2022-09-09T04:38:26;4.40;;;2.60;;
29466;SDS011;60968;37.490;-122.288;2022-09-09T04:41:27;6.47;;;2.70;;
29466;SDS011;60968;37.490;-122.288;2022-09-09T04:44:30;5.00;;;2.97;;
29466;SDS011;60968;37.490;-122.288;2022-09-09T04:47:32;6.85;;;3.15;;
29466;SDS011;60968;37.490;-122.288;2022-09-09T04:50:34;9.85;;;3.40;;
29466;SDS011;60968;37.490;-122.288;2022-09-09T04:53:42;5.25;;;3.38;;
29466;SDS011;60968;37.490;-122.288;2022-09-09T04:56:43;5.80;;;2.95;;
29466;SDS011;60968;37.490;-122.288;2022-09-09T04:59:44;8.38;;;3.65;;
29466;SDS011;60968;37.490;-122.288;2022-09-09T05:02:46;7.25;;;3.60;;
29466;SDS011;60968;37.490;-122.288;2022-09-09T05:05:47;14.85;;;5.18;;
29466;SDS011;60968;37.490;-122.288;2022-09-09T05:08:48;14.05;;;5.95;;
29466;SDS011;60968;37.490;-122.288;2022-09-09T05:11:53;21.63;;;6.50;;
29466;SDS011;60968;37.490;-122.288;2022-09-09T05:14:56;13.43;;;5.47;;
29466;SDS011;60968;37.490;-122.288;2022-09-09T05:17:58;9.93;;;4.38;;
29466;SDS011;60968;37.490;-122.288;2022-09-09T05:21:00;8.77;;;3.63;;
29466;SDS011;60968;37.490;-122.288;2022-09-09T05:24:01;7.90;;;3.80;;
29466;SDS011;60968;37.490;-122.288;2022-09-09T05:27:02;9.00;;;3.90;;
29466;SDS011;60968;37.490;-122.288;2022-09-09T05:30:03;9.07;;;4.13;;
29466;SDS011;60968;37.490;-122.288;2022-09-09T05:33:05;17.27;;;4.55;;
29466;SDS011;60968;37.490;-122.288;2022-09-09T05:36:08;12.68;;;3.83;;
29466;SDS011;60968;37.490;-122.288;2022-09-09T05:39:11;7.13;;;3.70;;
29466;SDS011;60968;37.490;-122.288;2022-09-09T05:42:13;10.52;;;4.05;;
29466;SDS011;60968;37.490;-122.288;2022-09-09T05:45:14;8.98;;;4.60;;
29466;SDS011;60968;37.490;-122.288;2022-09-09T05:48:16;13.18;;;4.97;;
29466;SDS011;60968;37.490;-122.288;2022-09-09T05:51:23;12.50;;;5.25;;
29466;SDS011;60968;37.490;-122.288;2022-09-09T05:54:26;9.38;;;4.00;;
29466;SDS011;60968;37.490;-122.288;2022-09-09T05:57:28;8.10;;;3.40;;
29466;SDS011;60968;37.490;-122.288;2022-09-09T06:00:29;9.77;;;3.28;;
29466;SDS011;60968;37.490;-122.288;2022-09-09T06:03:30;8.38;;;3.25;;
29466;SDS011;60968;37.490;-122.288;2022-09-09T06:06:32;9.50;;;3.08;;
29466;SDS011;60968;37.490;-122.288;2022-09-09T06:09:34;7.32;;;2.92;;
29466;SDS011;60968;37.490;-122.288;2022-09-09T06:12:35;10.15;;;3.22;;
29466;SDS011;60968;37.490;-122.288;2022-09-09T06:15:39;8.40;;;3.37;;
29466;SDS011;60968;37.490;-122.288;2022-09-09T06:18:51;7.97;;;3.25;;
29466;SDS011;60968;37.490;-122.288;2022-09-09T06:21:53;6.82;;;3.50;;
29466;SDS011;60968;37.490;-122.288;2022-09-09T06:24:55;12.83;;;4.00;;
29466;SDS011;60968;37.490;-122.288;2022-09-09T06:27:57;11.13;;;4.53;;
29466;SDS011;60968;37.490;-122.288;2022-09-09T06:31:00;14.32;;;5.47;;
29466;SDS011;60968;37.490;-122.288;2022-09-09T06:34:05;14.15;;;6.03;;
29466;SDS011;60968;37.490;-122.288;2022-09-09T06:37:10;26.52;;;6.88;;
29466;SDS011;60968;37.490;-122.288;2022-09-09T06:40:12;15.45;;;6.43;;
29466;SDS011;60968;37.490;-122.288;2022-09-09T06:43:13;14.52;;;6.30;;
29466;SDS011;60968;37.490;-122.288;2022-09-09T06:46:15;12.90;;;6.90;;
29466;SDS011;60968;37.490;-122.288;2022-09-09T06:49:19;18.77;;;6.73;;
29466;SDS011;60968;37.490;-122.288;2022-09-09T06:52:20;15.53;;;5.93;;
29466;SDS011;60968;37.490;-122.288;2022-09-09T06:55:22;13.50;;;5.73;;
29466;SDS011;60968;37.490;-122.288;2022-09-09T06:58:23;15.23;;;6.43;;
29466;SDS011;60968;37.490;-122.288;2022-09-09T07:01:26;13.97;;;5.20;;
29466;SDS011;60968;37.490;-122.288;2022-09-09T07:04:28;18.10;;;5.77;;
29466;SDS011;60968;37.490;-122.288;2022-09-09T07:07:29;16.97;;;5.60;;
29466;SDS011;60968;37.490;-122.288;2022-09-09T07:10:29;12.70;;;5.00;;
29466;SDS011;60968;37.490;-122.288;2022-09-09T07:13:31;15.77;;;6.03;;
29466;SDS011;60968;37.490;-122.288;2022-09-09T07:16:31;11.20;;;4.97;;
29466;SDS011;60968;37.490;-122.288;2022-09-09T07:19:32;11.57;;;5.00;;
29466;SDS011;60968;37.490;-122.288;2022-09-09T07:22:34;12.20;;;5.23;;
29466;SDS011;60968;37.490;-122.288;2022-09-09T07:25:35;11.97;;;5.70;;
29466;SDS011;60968;37.490;-122.288;2022-09-09T07:28:36;12.80;;;4.97;;
29466;SDS011;60968;37.490;-122.288;2022-09-09T07:31:38;13.30;;;6.00;;
29466;SDS011;60968;37.490;-122.288;2022-09-09T07:34:39;11.07;;;4.90;;
29466;SDS011;60968;37.490;-122.288;2022-09-09T07:37:40;16.87;;;5.03;;
29466;SDS011;60968;37.490;-122.288;2022-09-09T07:40:45;9.70;;;4.77;;
29466;SDS011;60968;37.490;-122.288;2022-09-09T07:43:49;16.47;;;5.33;;
29466;SDS011;60968;37.490;-122.288;2022-09-09T07:46:50;16.90;;;6.40;;
29466;SDS011;60968;37.490;-122.288;2022-09-09T07:49:51;11.87;;;4.83;;
29466;SDS011;60968;37.490;-122.288;2022-09-09T07:52:58;10.63;;;4.03;;
29466;SDS011;60968;37.490;-122.288;2022-09-09T07:56:03;16.23;;;4.87;;
29466;SDS011;60968;37.490;-122.288;2022-09-09T07:59:10;10.80;;;4.70;;
29466;SDS011;60968;37.490;-122.288;2022-09-09T08:02:11;13.33;;;5.80;;
29466;SDS011;60968;37.490;-122.288;2022-09-09T08:05:13;18.13;;;6.20;;
29466;SDS011;60968;37.490;-122.288;2022-09-09T08:08:14;20.60;;;6.10;;
29466;SDS011;60968;37.490;-122.288;2022-09-09T08:11:14;13.47;;;5.70;;
29466;SDS011;60968;37.490;-122.288;2022-09-09T08:14:16;10.33;;;4.83;;
29466;SDS011;60968;37.490;-122.288;2022-09-09T08:17:17;14.67;;;5.67;;
29466;SDS011;60968;37.490;-122.288;2022-09-09T08:20:18;18.23;;;5.90;;
29466;SDS011;60968;37.490;-122.288;2022-09-09T08:23:19;12.10;;;5.23;;
29466;SDS011;60968;37.490;-122.288;2022-09-09T08:26:20;14.87;;;6.13;;
29466;SDS011;60968;37.490;-122.288;2022-09-09T08:29:23;15.20;;;6.13;;
29466;SDS011;60968;37.490;-122.288;2022-09-09T08:32:25;18.93;;;5.90;;
29466;SDS011;60968;37.490;-122.288;2022-09-09T08:35:31;11.67;;;5.03;;
29466;SDS011;60968;37.490;-122.288;2022-09-09T08:38:32;28.57;;;8.80;;
29466;SDS011;60968;37.490;-122.288;2022-09-09T08:51:52;16.57;;;5.30;;
29466;SDS011;60968;37.490;-122.288;2022-09-09T08:55:03;32.43;;;9.37;;
29466;SDS011;60968;37.490;-122.288;2022-09-09T08:58:28;39.67;;;10.40;;
29466;SDS011;60968;37.490;-122.288;2022-09-09T09:11:26;21.77;;;6.90;;
29466;SDS011;60968;37.490;-122.288;2022-09-09T09:14:34;25.40;;;7.80;;
29466;SDS011;60968;37.490;-122.288;2022-09-09T09:17:38;31.53;;;8.37;;
29466;SDS011;60968;37.490;-122.288;2022-09-09T09:23:56;35.80;;;8.37;;
29466;SDS011;60968;37.490;-122.288;2022-09-09T09:27:00;29.47;;;8.83;;
29466;SDS011;60968;37.490;-122.288;2022-09-09T09:36:54;39.43;;;9.73;;
29466;SDS011;60968;37.490;-122.288;2022-09-09T09:40:11;41.70;;;11.37;;
29466;SDS011;60968;37.490;-122.288;2022-09-09T09:43:20;41.93;;;11.00;;
29466;SDS011;60968;37.490;-122.288;2022-09-09T09:46:25;48.10;;;10.33;;
29466;SDS011;60968;37.490;-122.288;2022-09-09T09:49:25;35.27;;;10.40;;
29466;SDS011;60968;37.490;-122.288;2022-09-09T09:52:27;15.10;;;5.57;;
29466;SDS011;60968;37.490;-122.288;2022-09-09T09:55:32;17.80;;;5.60;;
29466;SDS011;60968;37.490;-122.288;2022-09-09T10:01:51;13.13;;;4.60;;
29466;SDS011;60968;37.490;-122.288;2022-09-09T10:05:06;12.97;;;4.40;;
29466;SDS011;60968;37.490;-122.288;2022-09-09T10:08:15;16.40;;;5.67;;
29466;SDS011;60968;37.490;-122.288;2022-09-09T10:38:16;42.50;;;10.77;;
29466;SDS011;60968;37.490;-122.288;2022-09-09T10:41:45;39.40;;;9.53;;
29466;SDS011;60968;37.490;-122.288;2022-09-09T10:48:07;13.87;;;4.37;;
29466;SDS011;60968;37.490;-122.288;2022-09-09T10:57:47;11.73;;;4.53;;
29466;SDS011;60968;37.490;-122.288;2022-09-09T11:00:51;30.37;;;8.20;;
29466;SDS011;60968;37.490;-122.288;2022-09-09T11:04:05;35.27;;;10.33;;
29466;SDS011;60968;37.490;-122.288;2022-09-09T11:07:18;46.40;;;11.23;;
29466;SDS011;60968;37.490;-122.288;2022-09-09T11:10:46;35.73;;;10.30;;
29466;SDS011;60968;37.490;-122.288;2022-09-09T11:16:52;38.47;;;10.70;;
29466;SDS011;60968;37.490;-122.288;2022-09-09T11:19:58;31.10;;;10.13;;
29466;SDS011;60968;37.490;-122.288;2022-09-09T11:23:06;41.60;;;10.87;;
29466;SDS011;60968;37.490;-122.288;2022-09-09T11:26:14;27.17;;;8.20;;
29466;SDS011;60968;37.490;-122.288;2022-09-09T11:43:12;41.27;;;10.13;;
29466;SDS011;60968;37.490;-122.288;2022-09-09T11:46:42;44.33;;;10.77;;
29466;SDS011;60968;37.490;-122.288;2022-09-09T11:49:50;37.40;;;10.00;;
29466;SDS011;60968;37.490;-122.288;2022-09-09T11:53:02;33.23;;;9.20;;
29466;SDS011;60968;37.490;-122.288;2022-09-09T11:56:28;35.77;;;9.17;;
29466;SDS011;60968;37.490;-122.288;2022-09-09T11:59:34;42.90;;;11.20;;
29466;SDS011;60968;37.490;-122.288;2022-09-09T12:02:47;43.33;;;11.47;;
29466;SDS011;60968;37.490;-122.288;2022-09-09T12:05:49;54.07;;;12.60;;
29466;SDS011;60968;37.490;-122.288;2022-09-09T12:08:51;60.87;;;12.63;;
29466;SDS011;60968;37.490;-122.288;2022-09-09T12:18:14;34.43;;;10.17;;
29466;SDS011;60968;37.490;-122.288;2022-09-09T12:21:44;38.17;;;9.73;;
29466;SDS011;60968;37.490;-122.288;2022-09-09T12:32:09;25.30;;;7.50;;
29466;SDS011;60968;37.490;-122.288;2022-09-09T12:35:21;20.63;;;7.40;;
29466;SDS011;60968;37.490;-122.288;2022-09-09T12:38:30;29.90;;;7.63;;
29466;SDS011;60968;37.490;-122.288;2022-09-09T12:41:41;26.47;;;8.17;;
29466;SDS011;60968;37.490;-122.288;2022-09-09T12:44:51;21.47;;;6.90;;
29466;SDS011;60968;37.490;-122.288;2022-09-09T12:47:57;22.53;;;7.23;;
29466;SDS011;60968;37.490;-122.288;2022-09-09T12:50:59;19.50;;;6.70;;
29466;SDS011;60968;37.490;-122.288;2022-09-09T12:54:00;22.37;;;6.87;;
29466;SDS011;60968;37.490;-122.288;2022-09-09T12:57:01;16.93;;;6.20;;
29466;SDS011;60968;37.490;-122.288;2022-09-09T13:00:07;17.97;;;6.00;;
29466;SDS011;60968;37.490;-122.288;2022-09-09T13:03:17;18.67;;;6.33;;
29466;SDS011;60968;37.490;-122.288;2022-09-09T13:06:24;12.20;;;5.00;;
29466;SDS011;60968;37.490;-122.288;2022-09-09T13:09:28;14.27;;;5.50;;
29466;SDS011;60968;37.490;-122.288;2022-09-09T13:12:28;18.60;;;6.00;;
29466;SDS011;60968;37.490;-122.288;2022-09-09T13:15:29;16.63;;;6.27;;
29466;SDS011;60968;37.490;-122.288;2022-09-09T13:18:32;16.77;;;5.97;;
29466;SDS011;60968;37.490;-122.288;2022-09-09T13:21:36;14.90;;;5.70;;
29466;SDS011;60968;37.490;-122.288;2022-09-09T13:24:39;14.57;;;4.73;;
29466;SDS011;60968;37.490;-122.288;2022-09-09T13:27:51;12.60;;;4.77;;
29466;SDS011;60968;37.490;-122.288;2022-09-09T13:30:58;13.53;;;5.60;;
29466;SDS011;60968;37.490;-122.288;2022-09-09T13:34:10;16.87;;;6.17;;
29466;SDS011;60968;37.490;-122.288;2022-09-09T13:37:31;16.80;;;6.13;;
29466;SDS011;60968;37.490;-122.288;2022-09-09T13:40:38;18.43;;;5.80;;
29466;SDS011;60968;37.490;-122.288;2022-09-09T13:43:43;20.50;;;8.00;;
29466;SDS011;60968;37.490;-122.288;2022-09-09T13:46:45;29.47;;;7.63;;
29466;SDS011;60968;37.490;-122.288;2022-09-09T13:49:46;40.93;;;10.17;;
29466;SDS011;60968;37.490;-122.288;2022-09-09T13:52:48;38.53;;;10.13;;
29466;SDS011;60968;37.490;-122.288;2022-09-09T13:55:50;45.33;;;11.70;;
29466;SDS011;60968;37.490;-122.288;2022-09-09T13:58:52;62.13;;;13.03;;
29466;SDS011;60968;37.490;-122.288;2022-09-09T14:01:54;56.80;;;12.67;;
29466;SDS011;60968;37.490;-122.288;2022-09-09T14:04:56;55.37;;;11.77;;
29466;SDS011;60968;37.490;-122.288;2022-09-09T14:07:57;56.00;;;12.10;;
29466;SDS011;60968;37.490;-122.288;2022-09-09T14:10:59;50.07;;;10.93;;
29466;SDS011;60968;37.490;-122.288;2022-09-09T14:14:00;48.43;;;11.87;;
29466;SDS011;60968;37.490;-122.288;2022-09-09T14:17:04;50.53;;;11.97;;
29466;SDS011;60968;37.490;-122.288;2022-09-09T14:20:05;57.37;;;11.33;;
29466;SDS011;60968;37.490;-122.288;2022-09-09T14:23:09;58.03;;;12.37;;
29466;SDS011;60968;37.490;-122.288;2022-09-09T14:26:13;59.00;;;13.13;;
29466;SDS011;60968;37.490;-122.288;2022-09-09T14:29:15;57.93;;;13.17;;
29466;SDS011;60968;37.490;-122.288;2022-09-09T14:32:21;53.30;;;11.50;;
29466;SDS011;60968;37.490;-122.288;2022-09-09T14:35:22;59.67;;;11.67;;
29466;SDS011;60968;37.490;-122.288;2022-09-09T14:38:23;59.03;;;12.67;;
29466;SDS011;60968;37.490;-122.288;2022-09-09T14:41:25;66.60;;;14.13;;
29466;SDS011;60968;37.490;-122.288;2022-09-09T14:44:25;58.43;;;12.67;;
29466;SDS011;60968;37.490;-122.288;2022-09-09T14:47:27;47.70;;;11.27;;
29466;SDS011;60968;37.490;-122.288;2022-09-09T14:50:28;48.40;;;11.80;;
29466;SDS011;60968;37.490;-122.288;2022-09-09T14:53:31;37.53;;;10.60;;
29466;SDS011;60968;37.490;-122.288;2022-09-09T14:56:32;33.17;;;9.93;;
29466;SDS011;60968;37.490;-122.288;2022-09-09T14:59:35;38.30;;;10.33;;
29466;SDS011;60968;37.490;-122.288;2022-09-09T15:02:36;40.43;;;10.30;;
29466;SDS011;60968;37.490;-122.288;2022-09-09T15:05:37;33.17;;;10.65;;
29466;SDS011;60968;37.490;-122.288;2022-09-09T15:08:39;41.50;;;11.57;;
29466;SDS011;60968;37.490;-122.288;2022-09-09T15:11:42;32.75;;;10.52;;
29466;SDS011;60968;37.490;-122.288;2022-09-09T15:14:50;32.80;;;10.40;;
29466;SDS011;60968;37.490;-122.288;2022-09-09T15:17:51;38.00;;;11.30;;
29466;SDS011;60968;37.490;-122.288;2022-09-09T15:20:52;38.22;;;11.27;;
29466;SDS011;60968;37.490;-122.288;2022-09-09T15:23:53;41.75;;;12.65;;
29466;SDS011;60968;37.490;-122.288;2022-09-09T15:26:54;39.92;;;12.57;;
29466;SDS011;60968;37.490;-122.288;2022-09-09T15:29:55;36.58;;;11.23;;
29466;SDS011;60968;37.490;-122.288;2022-09-09T15:32:56;40.63;;;12.50;;
29466;SDS011;60968;37.490;-122.288;2022-09-09T15:35:57;40.67;;;13.27;;
29466;SDS011;60968;37.490;-122.288;2022-09-09T15:38:58;56.95;;;14.05;;
29466;SDS011;60968;37.490;-122.288;2022-09-09T15:42:01;41.78;;;12.65;;
29466;SDS011;60968;37.490;-122.288;2022-09-09T15:45:02;42.97;;;11.90;;
29466;SDS011;60968;37.490;-122.288;2022-09-09T15:48:10;45.97;;;11.85;;
29466;SDS011;60968;37.490;-122.288;2022-09-09T15:51:11;44.90;;;12.75;;
29466;SDS011;60968;37.490;-122.288;2022-09-09T15:54:15;41.72;;;12.02;;
29466;SDS011;60968;37.490;-122.288;2022-09-09T15:57:19;45.38;;;13.02;;
29466;SDS011;60968;37.490;-122.288;2022-09-09T16:00:20;45.97;;;12.07;;
29466;SDS011;60968;37.490;-122.288;2022-09-09T16:03:21;46.58;;;11.77;;
29466;SDS011;60968;37.490;-122.288;2022-09-09T16:06:23;45.93;;;12.60;;
29466;SDS011;60968;37.490;-122.288;2022-09-09T16:09:38;48.77;;;11.97;;
29466;SDS011;60968;37.490;-122.288;2022-09-09T16:12:39;43.20;;;11.00;;
29466;SDS011;60968;37.490;-122.288;2022-09-09T16:15:40;49.80;;;11.87;;
29466;SDS011;60968;37.490;-122.288;2022-09-09T16:18:43;51.10;;;11.47;;
29466;SDS011;60968;37.490;-122.288;2022-09-09T16:21:47;49.83;;;11.63;;
29466;SDS011;60968;37.490;-122.288;2022-09-09T16:24:50;44.73;;;11.03;;
29466;SDS011;60968;37.490;-122.288;2022-09-09T16:27:52;47.87;;;12.73;;
29466;SDS011;60968;37.490;-122.288;2022-09-09T16:30:54;41.73;;;11.17;;
29466;SDS011;60968;37.490;-122.288;2022-09-09T16:33:55;51.80;;;12.70;;
29466;SDS011;60968;37.490;-122.288;2022-09-09T16:36:56;53.33;;;13.20;;
29466;SDS011;60968;37.490;-122.288;2022-09-09T16:39:56;43.58;;;11.88;;
29466;SDS011;60968;37.490;-122.288;2022-09-09T16:42:57;41.22;;;11.75;;
29466;SDS011;60968;37.490;-122.288;2022-09-09T16:45:58;56.20;;;12.57;;
29466;SDS011;60968;37.490;-122.288;2022-09-09T16:49:00;43.95;;;12.50;;
29466;SDS011;60968;37.490;-122.288;2022-09-09T16:52:03;43.07;;;12.57;;
29466;SDS011;60968;37.490;-122.288;2022-09-09T16:55:07;64.15;;;13.38;;
29466;SDS011;60968;37.490;-122.288;2022-09-09T16:58:10;48.92;;;12.90;;
29466;SDS011;60968;37.490;-122.288;2022-09-09T17:01:11;57.47;;;13.35;;
29466;SDS011;60968;37.490;-122.288;2022-09-09T17:04:16;50.72;;;12.32;;
29466;SDS011;60968;37.490;-122.288;2022-09-09T17:07:18;49.22;;;13.23;;
29466;SDS011;60968;37.490;-122.288;2022-09-09T17:10:20;42.95;;;13.65;;
29466;SDS011;60968;37.490;-122.288;2022-09-09T17:13:22;56.30;;;14.70;;
29466;SDS011;60968;37.490;-122.288;2022-09-09T17:16:25;50.33;;;14.38;;
29466;SDS011;60968;37.490;-122.288;2022-09-09T17:19:28;52.47;;;15.65;;
29466;SDS011;60968;37.490;-122.288;2022-09-09T17:22:29;49.67;;;15.63;;
29466;SDS011;60968;37.490;-122.288;2022-09-09T17:25:30;55.25;;;18.08;;
29466;SDS011;60968;37.490;-122.288;2022-09-09T17:28:31;44.70;;;16.45;;
29466;SDS011;60968;37.490;-122.288;2022-09-09T17:31:32;49.20;;;19.20;;
29466;SDS011;60968;37.490;-122.288;2022-09-09T17:34:33;43.33;;;16.83;;
29466;SDS011;60968;37.490;-122.288;2022-09-09T17:37:35;42.10;;;16.77;;
29466;SDS011;60968;37.490;-122.288;2022-09-09T17:40:36;53.10;;;17.30;;
29466;SDS011;60968;37.490;-122.288;2022-09-09T17:43:37;52.75;;;18.83;;
29466;SDS011;60968;37.490;-122.288;2022-09-09T17:46:40;51.10;;;18.80;;
29466;SDS011;60968;37.490;-122.288;2022-09-09T17:49:42;50.92;;;18.58;;
29466;SDS011;60968;37.490;-122.288;2022-09-09T17:52:43;49.67;;;17.40;;
29466;SDS011;60968;37.490;-122.288;2022-09-09T17:55:45;49.03;;;16.75;;
29466;SDS011;60968;37.490;-122.288;2022-09-09T17:58:46;56.42;;;17.40;;
29466;SDS011;60968;37.490;-122.288;2022-09-09T18:01:48;54.88;;;15.95;;
29466;SDS011;60968;37.490;-122.288;2022-09-09T18:04:50;53.78;;;15.65;;
29466;SDS011;60968;37.490;-122.288;2022-09-09T18:07:54;52.10;;;14.35;;
29466;SDS011;60968;37.490;-122.288;2022-09-09T18:10:56;54.58;;;15.00;;
29466;SDS011;60968;37.490;-122.288;2022-09-09T18:13:59;49.13;;;13.80;;
29466;SDS011;60968;37.490;-122.288;2022-09-09T18:17:02;50.72;;;13.98;;
29466;SDS011;60968;37.490;-122.288;2022-09-09T18:20:05;56.65;;;14.07;;
29466;SDS011;60968;37.490;-122.288;2022-09-09T18:23:06;47.35;;;12.68;;
29466;SDS011;60968;37.490;-122.288;2022-09-09T18:26:07;45.50;;;13.43;;
29466;SDS011;60968;37.490;-122.288;2022-09-09T18:29:11;52.85;;;14.15;;
29466;SDS011;60968;37.490;-122.288;2022-09-09T18:32:13;40.38;;;12.48;;
29466;SDS011;60968;37.490;-122.288;2022-09-09T18:35:13;49.85;;;12.60;;
29466;SDS011;60968;37.490;-122.288;2022-09-09T18:38:14;41.97;;;13.15;;
29466;SDS011;60968;37.490;-122.288;2022-09-09T18:41:17;41.80;;;12.10;;
29466;SDS011;60968;37.490;-122.288;2022-09-09T18:44:21;56.45;;;13.30;;
29466;SDS011;60968;37.490;-122.288;2022-09-09T18:47:23;52.15;;;13.38;;
29466;SDS011;60968;37.490;-122.288;2022-09-09T18:50:24;45.65;;;13.73;;
29466;SDS011;60968;37.490;-122.288;2022-09-09T18:53:25;45.05;;;13.00;;
29466;SDS011;60968;37.490;-122.288;2022-09-09T18:56:27;49.20;;;12.73;;
29466;SDS011;60968;37.490;-122.288;2022-09-09T18:59:29;49.50;;;13.43;;
29466;SDS011;60968;37.490;-122.288;2022-09-09T19:02:30;51.00;;;13.32;;
29466;SDS011;60968;37.490;-122.288;2022-09-09T19:05:31;49.85;;;13.38;;
29466;SDS011;60968;37.490;-122.288;2022-09-09T19:08:36;43.78;;;12.80;;
29466;SDS011;60968;37.490;-122.288;2022-09-09T19:11:39;50.60;;;13.82;;
29466;SDS011;60968;37.490;-122.288;2022-09-09T19:14:41;50.03;;;13.52;;
29466;SDS011;60968;37.490;-122.288;2022-09-09T19:17:42;45.35;;;13.20;;
29466;SDS011;60968;37.490;-122.288;2022-09-09T19:20:42;47.38;;;11.90;;
29466;SDS011;60968;37.490;-122.288;2022-09-09T19:23:46;44.15;;;12.18;;
29466;SDS011;60968;37.490;-122.288;2022-09-09T19:26:53;48.75;;;12.98;;
29466;SDS011;60968;37.490;-122.288;2022-09-09T19:29:55;44.13;;;13.25;;
29466;SDS011;60968;37.490;-122.288;2022-09-09T19:32:58;45.58;;;13.27;;
29466;SDS011;60968;37.490;-122.288;2022-09-09T19:36:00;37.78;;;11.68;;
29466;SDS011;60968;37.490;-122.288;2022-09-09T19:39:05;56.38;;;13.00;;
29466;SDS011;60968;37.490;-122.288;2022-09-09T19:42:06;45.67;;;12.63;;
29466;SDS011;60968;37.490;-122.288;2022-09-09T19:45:08;54.85;;;13.15;;
29466;SDS011;60968;37.490;-122.288;2022-09-09T19:48:11;46.40;;;13.00;;
29466;SDS011;60968;37.490;-122.288;2022-09-09T19:51:15;43.70;;;12.90;;
29466;SDS011;60968;37.490;-122.288;2022-09-09T19:54:18;45.05;;;13.10;;
29466;SDS011;60968;37.490;-122.288;2022-09-09T19:57:22;47.97;;;12.90;;